Time;durP1;ratioP1;P1;durP2;ratioP2;P2;SDS_P1;SDS_P2;PMS_P1;PMS_P2;Temp;Humidity;BMP_temperature;BMP_pressure;BME280_temperature;BME280_humidity;BME280_pressure;Samples;Min_cycle;Max_cycle;Signal;HPM_P1;HPM_P2
2022/07/28 00:00:06;;;;;;;6.85;1.23;;;11.60;99.90;;;;;;4954733;29;20051;-77
2022/07/28 00:02:31;;;;;;;6.80;1.20;;;11.60;99.90;;;;;;4954457;29;20055;-83
2022/07/28 00:04:57;;;;;;;5.85;1.17;;;11.70;99.90;;;;;;4938830;29;20118;-79
2022/07/28 00:07:23;;;;;;;3.38;1.02;;;11.70;99.90;;;;;;4954346;29;20455;-77
2022/07/28 00:09:49;;;;;;;7.22;1.02;;;11.70;99.90;;;;;;4955154;28;20060;-77
2022/07/28 00:12:15;;;;;;;4.90;1.15;;;11.70;99.90;;;;;;4938032;29;20051;-80
2022/07/28 00:14:41;;;;;;;10.30;1.10;;;11.70;99.90;;;;;;4956089;29;20051;-76
2022/07/28 00:17:07;;;;;;;3.20;0.90;;;11.70;99.90;;;;;;4954537;29;20490;-77
2022/07/28 00:19:33;;;;;;;7.38;1.10;;;11.70;99.90;;;;;;4955050;28;20059;-83
2022/07/28 00:21:59;;;;;;;5.30;1.15;;;11.80;99.90;;;;;;4938031;29;20492;-78
2022/07/28 00:24:24;;;;;;;5.50;1.08;;;11.80;99.90;;;;;;4953797;29;20054;-78
2022/07/28 00:26:50;;;;;;;5.15;1.20;;;11.90;99.90;;;;;;4937719;29;20070;-78
2022/07/28 00:29:16;;;;;;;6.20;1.35;;;11.80;99.90;;;;;;4955564;29;20054;-78
2022/07/28 00:31:42;;;;;;;9.17;1.23;;;11.80;99.90;;;;;;4954496;28;20486;-80
2022/07/28 00:34:08;;;;;;;8.40;1.30;;;11.80;99.90;;;;;;4954140;29;20063;-77
2022/07/28 00:36:33;;;;;;;6.25;1.30;;;11.70;99.90;;;;;;4954285;29;20055;-79
2022/07/28 00:38:59;;;;;;;4.97;1.00;;;11.70;99.90;;;;;;4953263;29;20058;-79
2022/07/28 00:41:25;;;;;;;7.57;1.30;;;11.70;99.90;;;;;;4954781;28;20047;-77
2022/07/28 00:43:51;;;;;;;6.40;1.10;;;11.70;99.90;;;;;;4953593;29;20082;-78
2022/07/28 00:46:19;;;;;;;3.40;1.10;;;11.70;99.90;;;;;;4953672;29;20051;-77
2022/07/28 00:48:50;;;;;;;2.53;0.90;;;11.70;99.90;;;;;;4954438;29;20287;-78
2022/07/28 00:51:19;;;;;;;6.32;1.10;;;11.70;99.90;;;;;;4954023;29;20360;-78
2022/07/28 00:53:45;;;;;;;8.95;1.60;;;11.80;99.90;;;;;;4954093;29;20109;-78
2022/07/28 00:56:12;;;;;;;7.53;1.77;;;11.70;99.90;;;;;;4954595;28;20168;-78
2022/07/28 00:58:38;;;;;;;7.57;1.60;;;11.70;99.90;;;;;;4953376;29;20043;-82
2022/07/28 01:01:08;;;;;;;5.38;1.90;;;11.70;99.90;;;;;;4954555;29;20213;-78
2022/07/28 01:03:37;;;;;;;6.25;1.90;;;11.70;99.90;;;;;;4954663;28;20466;-77
2022/07/28 01:06:12;;;;;;;6.47;1.63;;;11.60;99.90;;;;;;4953893;29;20047;-77
2022/07/28 01:08:51;;;;;;;4.30;1.30;;;11.60;99.90;;;;;;4954915;29;20051;-77
2022/07/28 01:11:26;;;;;;;6.03;1.50;;;11.60;99.90;;;;;;4954449;28;20468;-79
2022/07/28 01:14:09;;;;;;;6.78;1.17;;;11.60;99.90;;;;;;4953243;29;20047;-77
2022/07/28 01:16:43;;;;;;;10.05;1.88;;;11.50;99.90;;;;;;4953514;29;20216;-77
2022/07/28 01:19:32;;;;;;;8.15;2.20;;;11.50;99.90;;;;;;4954473;28;20109;-79
2022/07/28 01:22:00;;;;;;;6.63;1.75;;;11.40;99.90;;;;;;4953537;29;20508;-78
2022/07/28 01:24:44;;;;;;;9.50;2.20;;;11.40;99.90;;;;;;4952988;29;20047;-78
2022/07/28 01:27:28;;;;;;;8.73;3.72;;;11.40;99.90;;;;;;4953163;29;20047;-78
2022/07/28 01:30:15;;;;;;;7.18;2.05;;;11.40;99.90;;;;;;4953118;29;20200;-77
2022/07/28 01:32:49;;;;;;;3.63;1.30;;;11.40;99.90;;;;;;4937283;29;20062;-84
2022/07/28 01:35:25;;;;;;;5.80;1.33;;;11.40;99.90;;;;;;4952919;29;20479;-77
2022/07/28 01:37:56;;;;;;;6.30;1.27;;;11.40;99.90;;;;;;4953349;29;20476;-76
2022/07/28 01:40:26;;;;;;;6.50;1.52;;;11.40;99.90;;;;;;4954722;28;20085;-77
2022/07/28 01:42:57;;;;;;;7.07;1.60;;;11.40;99.90;;;;;;4953763;28;20480;-77
2022/07/28 01:45:24;;;;;;;5.53;1.33;;;11.30;99.90;;;;;;4957172;28;20521;-76
2022/07/28 01:47:53;;;;;;;3.38;1.10;;;11.30;99.90;;;;;;4956663;29;20050;-77
2022/07/28 01:50:21;;;;;;;6.68;1.83;;;11.40;99.90;;;;;;4956149;29;20059;-77
2022/07/28 01:52:48;;;;;;;7.10;1.50;;;11.40;99.90;;;;;;4957681;28;20051;-77
2022/07/28 01:55:16;;;;;;;;;;;11.40;99.90;;;;;;4941263;29;20047;-77
2022/07/28 01:57:42;;;;;;;5.72;1.35;;;11.30;99.90;;;;;;4956529;29;20367;-77
2022/07/28 02:00:10;;;;;;;4.05;1.58;;;11.30;99.90;;;;;;4956531;29;20051;-77
2022/07/28 02:02:37;;;;;;;6.10;1.50;;;11.40;99.90;;;;;;4956586;29;20102;-78
2022/07/28 02:05:04;;;;;;;5.38;1.65;;;11.30;99.90;;;;;;4956227;29;20608;-78
2022/07/28 02:07:31;;;;;;;5.43;1.35;;;11.30;99.90;;;;;;4956291;29;20050;-78
2022/07/28 02:09:59;;;;;;;6.88;1.90;;;11.30;99.90;;;;;;4957154;28;20157;-76
2022/07/28 02:12:25;;;;;;;;;;;11.30;99.90;;;;;;4956817;29;20063;-75
2022/07/28 02:14:52;;;;;;;4.85;1.60;;;11.30;99.90;;;;;;4959536;28;19922;-75
2022/07/28 02:17:24;;;;;;;4.53;1.55;;;11.20;99.90;;;;;;4961093;28;20102;-75
2022/07/28 02:19:51;;;;;;;6.43;1.92;;;11.20;99.90;;;;;;4977044;28;20043;-76
2022/07/28 02:22:19;;;;;;;7.30;2.13;;;11.20;99.90;;;;;;4978978;28;20087;-77
2022/07/28 02:24:46;;;;;;;5.57;1.55;;;11.20;99.90;;;;;;4962364;29;20099;-76
2022/07/28 02:27:19;;;;;;;8.75;1.52;;;11.20;99.90;;;;;;4977306;28;20047;-77
2022/07/28 02:29:50;;;;;;;5.47;1.75;;;11.10;99.90;;;;;;4976362;29;20043;-78
2022/07/28 02:32:30;;;;;;;5.18;1.92;;;11.10;99.90;;;;;;4967712;29;20313;-75
2022/07/28 02:35:11;;;;;;;11.13;2.30;;;11.00;99.90;;;;;;4973259;28;20055;-76
2022/07/28 02:37:47;;;;;;;7.80;2.92;;;11.00;99.90;;;;;;4950125;29;20095;-74
2022/07/28 02:40:15;;;;;;;4.80;1.55;;;10.90;99.90;;;;;;4962577;28;20091;-75
2022/07/28 02:42:45;;;;;;;7.45;2.17;;;10.80;99.90;;;;;;4960431;29;20043;-74
2022/07/28 02:45:12;;;;;;;8.82;2.00;;;10.80;99.90;;;;;;4944784;29;20051;-76
2022/07/28 02:47:45;;;;;;;7.38;2.33;;;10.70;99.90;;;;;;4943577;29;20128;-76
2022/07/28 02:50:13;;;;;;;7.88;1.77;;;10.60;99.90;;;;;;4942000;29;20443;-76
2022/07/28 02:52:41;;;;;;;8.32;1.80;;;10.70;99.90;;;;;;4958496;29;20063;-75
2022/07/28 02:55:09;;;;;;;7.38;1.80;;;10.60;99.90;;;;;;4939996;29;20047;-75
2022/07/28 02:57:39;;;;;;;7.28;1.95;;;10.60;99.90;;;;;;4958978;29;20090;-75
2022/07/28 03:00:05;;;;;;;7.90;1.80;;;10.60;99.90;;;;;;4958980;28;20063;-76
2022/07/28 03:02:35;;;;;;;5.40;2.17;;;10.50;99.90;;;;;;4957898;29;20085;-76
2022/07/28 03:05:02;;;;;;;5.72;1.63;;;10.50;99.90;;;;;;4958768;29;20495;-74
2022/07/28 03:07:30;;;;;;;8.48;2.05;;;10.50;99.90;;;;;;4957920;29;20087;-75
2022/07/28 03:09:57;;;;;;;5.50;1.90;;;10.50;99.90;;;;;;4957364;29;20550;-75
2022/07/28 03:12:23;;;;;;;;;;;10.50;99.90;;;;;;4957599;29;20206;-75
2022/07/28 03:14:49;;;;;;;5.77;1.53;;;10.40;99.90;;;;;;4956920;29;19985;-74
2022/07/28 03:17:15;;;;;;;5.07;1.88;;;10.40;99.90;;;;;;4957520;28;20043;-75
2022/07/28 03:19:41;;;;;;;4.93;1.70;;;10.40;99.90;;;;;;4955582;29;20051;-74
2022/07/28 03:22:07;;;;;;;5.05;2.08;;;10.40;99.90;;;;;;4955155;29;20110;-74
2022/07/28 03:24:37;;;;;;;5.20;1.75;;;10.40;99.90;;;;;;4956799;29;20051;-74
2022/07/28 03:27:12;;;;;;;6.75;1.80;;;10.40;99.90;;;;;;4956250;29;20055;-75
2022/07/28 03:29:40;;;;;;;4.95;1.73;;;10.40;99.90;;;;;;4940123;29;20058;-75
2022/07/28 03:32:07;;;;;;;8.75;1.90;;;10.40;99.90;;;;;;4956860;29;20405;-75
2022/07/28 03:34:33;;;;;;;9.25;2.33;;;10.40;99.90;;;;;;4964159;29;20122;-74
2022/07/28 03:37:04;;;;;;;8.13;2.05;;;10.30;99.90;;;;;;4955336;29;20464;-75
2022/07/28 03:39:35;;;;;;;7.15;2.28;;;10.40;99.90;;;;;;4957156;28;20051;-75
2022/07/28 03:42:02;;;;;;;7.13;2.00;;;10.30;99.90;;;;;;4956381;29;20059;-74
2022/07/28 03:44:29;;;;;;;6.40;2.05;;;10.30;99.90;;;;;;4955587;29;20102;-74
2022/07/28 03:46:55;;;;;;;6.82;2.03;;;10.40;99.90;;;;;;4956366;29;20043;-74
2022/07/28 03:49:21;;;;;;;7.07;2.20;;;10.30;99.90;;;;;;4940388;29;20059;-74
2022/07/28 03:51:47;;;;;;;6.35;1.92;;;10.30;99.90;;;;;;4940878;29;20047;-75
2022/07/28 03:54:12;;;;;;;5.50;1.73;;;10.30;99.90;;;;;;4940987;29;20468;-76
2022/07/28 03:56:38;;;;;;;9.20;2.00;;;10.20;99.90;;;;;;4956759;29;20054;-74
2022/07/28 03:59:04;;;;;;;6.47;1.80;;;10.20;99.90;;;;;;4957714;29;20165;-75
2022/07/28 04:01:30;;;;;;;9.52;2.55;;;10.10;99.90;;;;;;4958388;28;20043;-74
2022/07/28 04:03:55;;;;;;;8.15;2.58;;;10.10;99.90;;;;;;4939063;29;20051;-74
2022/07/28 04:06:21;;;;;;;8.07;2.45;;;10.10;99.90;;;;;;4955913;28;20043;-74
2022/07/28 04:08:47;;;;;;;5.50;2.30;;;10.10;99.90;;;;;;4955368;29;20050;-74
2022/07/28 04:11:13;;;;;;;7.95;2.17;;;10.10;99.90;;;;;;4949130;29;20135;-75
2022/07/28 04:13:38;;;;;;;7.32;2.13;;;10.10;99.90;;;;;;4963598;29;20517;-76
2022/07/28 04:16:05;;;;;;;6.38;2.25;;;10.10;99.90;;;;;;4939876;29;20055;-75
2022/07/28 04:18:31;;;;;;;9.35;2.40;;;10.00;99.90;;;;;;4956014;29;20134;-74
2022/07/28 04:20:57;;;;;;;8.63;2.10;;;10.00;99.90;;;;;;4955772;28;20126;-75
2022/07/28 04:23:23;;;;;;;7.05;3.22;;;10.00;99.90;;;;;;4939327;29;20043;-75
2022/07/28 04:25:49;;;;;;;5.80;2.07;;;10.00;99.90;;;;;;4955596;29;20054;-75
2022/07/28 04:28:15;;;;;;;6.32;2.20;;;10.00;99.90;;;;;;4939277;29;20043;-76
2022/07/28 04:30:40;;;;;;;6.60;2.15;;;10.00;99.90;;;;;;4954970;29;20428;-75
2022/07/28 04:33:06;;;;;;;11.77;3.92;;;10.00;99.90;;;;;;4955804;29;20106;-74
2022/07/28 04:35:33;;;;;;;7.75;3.35;;;10.10;99.90;;;;;;4938485;29;20368;-74
2022/07/28 04:38:00;;;;;;;10.98;2.72;;;10.10;99.90;;;;;;4938319;29;20043;-76
2022/07/28 04:40:26;;;;;;;5.20;2.25;;;10.10;99.90;;;;;;4955302;29;20047;-75
2022/07/28 04:42:53;;;;;;;6.88;2.30;;;10.10;99.90;;;;;;4953823;29;20543;-75
2022/07/28 04:45:18;;;;;;;11.30;2.53;;;10.20;99.90;;;;;;4955397;29;20051;-73
2022/07/28 04:47:44;;;;;;;7.22;2.35;;;10.20;99.90;;;;;;4955799;28;20298;-74
2022/07/28 04:50:13;;;;;;;6.70;2.28;;;10.30;99.90;;;;;;4954597;29;20150;-74
2022/07/28 04:52:40;;;;;;;6.10;2.65;;;10.40;99.90;;;;;;4955296;29;20451;-74
2022/07/28 04:55:06;;;;;;;6.15;2.40;;;10.40;99.90;;;;;;4954902;29;20396;-77
2022/07/28 04:57:33;;;;;;;8.65;2.22;;;10.50;99.90;;;;;;4955780;29;20057;-75
2022/07/28 04:59:59;;;;;;;8.20;2.28;;;10.50;99.90;;;;;;4955360;28;20051;-75
2022/07/28 05:02:25;;;;;;;6.00;2.47;;;10.50;99.90;;;;;;4954268;29;20098;-74
2022/07/28 05:04:51;;;;;;;6.63;2.25;;;10.60;99.90;;;;;;4938192;29;20047;-74
2022/07/28 05:07:17;;;;;;;7.15;2.67;;;10.60;99.90;;;;;;4955661;29;20047;-76
2022/07/28 05:09:43;;;;;;;13.77;3.00;;;10.70;99.90;;;;;;4937965;29;20545;-74
2022/07/28 05:12:10;;;;;;;11.27;2.97;;;10.80;99.90;;;;;;4937402;29;20579;-74
2022/07/28 05:14:36;;;;;;;9.02;2.30;;;10.90;99.90;;;;;;4954870;29;20059;-74
2022/07/28 05:17:02;;;;;;;9.20;2.58;;;10.90;99.90;;;;;;4953839;29;20051;-74
2022/07/28 05:19:27;;;;;;;9.50;3.05;;;11.10;99.90;;;;;;4952454;29;20467;-74
2022/07/28 05:21:53;;;;;;;6.53;2.53;;;11.20;99.90;;;;;;4953446;29;20171;-75
2022/07/28 05:24:24;;;;;;;10.23;2.97;;;11.20;99.90;;;;;;4954150;29;20058;-74
2022/07/28 05:26:50;;;;;;;9.35;2.50;;;11.40;99.90;;;;;;4955265;29;20047;-75
2022/07/28 05:29:16;;;;;;;14.25;2.80;;;11.40;99.90;;;;;;4955042;28;20495;-75
2022/07/28 05:31:41;;;;;;;7.78;2.33;;;11.60;99.90;;;;;;4955352;28;20096;-75
2022/07/28 05:34:07;;;;;;;7.93;2.33;;;11.70;99.90;;;;;;4954188;29;20421;-74
2022/07/28 05:36:34;;;;;;;7.75;2.20;;;11.80;99.90;;;;;;4953690;29;20066;-74
2022/07/28 05:39:00;;;;;;;7.57;2.35;;;12.00;99.90;;;;;;4954991;29;20051;-74
2022/07/28 05:41:26;;;;;;;6.65;2.25;;;12.20;99.90;;;;;;4954872;28;20047;-75
2022/07/28 05:43:51;;;;;;;6.45;2.40;;;12.30;99.90;;;;;;4955495;28;20083;-75
2022/07/28 05:46:17;;;;;;;9.45;2.08;;;12.40;99.90;;;;;;4954153;29;20138;-75
2022/07/28 05:48:44;;;;;;;5.78;2.10;;;12.60;99.90;;;;;;4955176;29;20055;-75
2022/07/28 05:51:11;;;;;;;5.93;2.20;;;12.80;99.90;;;;;;4954050;29;20058;-77
2022/07/28 05:53:36;;;;;;;8.73;2.40;;;12.90;99.90;;;;;;4938339;29;20047;-75
2022/07/28 05:56:02;;;;;;;6.32;2.30;;;13.10;99.90;;;;;;4954126;29;20058;-74
2022/07/28 05:58:29;;;;;;;7.50;2.50;;;13.20;99.90;;;;;;4955868;29;20051;-76
2022/07/28 06:00:58;;;;;;;10.60;2.25;;;13.40;99.90;;;;;;4955550;28;20058;-75
2022/07/28 06:03:24;;;;;;;9.57;2.50;;;13.50;99.90;;;;;;4954113;28;20526;-75
2022/07/28 06:05:54;;;;;;;7.07;2.00;;;13.70;99.90;;;;;;4921029;29;20039;-78
2022/07/28 06:08:19;;;;;;;11.15;1.80;;;13.90;99.90;;;;;;4952414;29;20113;-75
2022/07/28 06:13:29;;;;;;;8.98;2.00;;;14.10;99.90;;;;;;4955751;29;20051;-74
2022/07/28 06:15:57;;;;;;;12.93;1.98;;;14.30;99.90;;;;;;4954831;28;20055;-75
2022/07/28 06:18:23;;;;;;;5.10;2.13;;;14.30;99.90;;;;;;4953440;29;20066;-75
2022/07/28 06:20:49;;;;;;;13.50;1.98;;;14.40;99.90;;;;;;4937861;29;20371;-76
2022/07/28 06:23:20;;;;;;;7.80;1.67;;;14.60;99.90;;;;;;4956440;29;20187;-76
2022/07/28 06:25:47;;;;;;;8.35;1.30;;;14.70;99.90;;;;;;4954052;29;20577;-75
2022/07/28 06:28:13;;;;;;;5.15;1.25;;;14.80;99.90;;;;;;4954910;28;20086;-76
2022/07/28 06:30:39;;;;;;;5.55;1.13;;;15.00;99.90;;;;;;4955518;28;20101;-75
2022/07/28 06:33:06;;;;;;;8.88;0.95;;;15.10;99.90;;;;;;4941201;29;20241;-76
2022/07/28 06:35:32;;;;;;;7.40;0.90;;;15.20;99.90;;;;;;4958057;28;20083;-75
2022/07/28 06:37:58;;;;;;;6.47;0.95;;;15.40;99.90;;;;;;4941507;29;20137;-76
2022/07/28 06:40:24;;;;;;;3.60;0.88;;;15.50;99.90;;;;;;4957634;29;20186;-77
2022/07/28 06:42:50;;;;;;;8.00;1.10;;;15.50;99.90;;;;;;4941279;29;20047;-76
2022/07/28 06:45:17;;;;;;;9.30;1.05;;;15.60;99.90;;;;;;4957280;29;20043;-75
2022/07/28 06:47:43;;;;;;;5.65;1.00;;;15.60;99.90;;;;;;4967931;29;20043;-76
2022/07/28 06:50:10;;;;;;;4.38;0.80;;;15.60;99.90;;;;;;4942567;29;20066;-75
2022/07/28 06:52:36;;;;;;;;;;;15.70;99.90;;;;;;4942895;29;20134;-75
2022/07/28 06:55:04;;;;;;;7.75;0.73;;;15.70;99.90;;;;;;4957730;29;19926;-76
2022/07/28 06:57:32;;;;;;;7.93;0.90;;;15.80;99.90;;;;;;4924954;29;20047;-74
2022/07/28 06:59:58;;;;;;;7.15;0.88;;;15.80;99.90;;;;;;4959077;29;20055;-77
2022/07/28 07:02:24;;;;;;;5.50;0.70;;;15.90;99.90;;;;;;4960157;29;20052;-78
2022/07/28 07:04:53;;;;;;;5.20;0.80;;;16.00;99.90;;;;;;4961397;28;20388;-76
2022/07/28 07:07:19;;;;;;;8.00;1.10;;;15.90;99.90;;;;;;4964510;29;20078;-76
2022/07/28 07:09:44;;;;;;;4.68;0.95;;;16.00;99.90;;;;;;4972444;29;20090;-76
2022/07/28 07:12:10;;;;;;;9.98;1.08;;;16.10;99.90;;;;;;4964219;29;20043;-75
2022/07/28 07:14:36;;;;;;;4.75;0.80;;;16.00;99.90;;;;;;4960029;29;20047;-77
2022/07/28 07:17:02;;;;;;;5.47;0.80;;;16.00;99.90;;;;;;4959434;29;20051;-75
2022/07/28 07:19:27;;;;;;;3.28;0.60;;;16.10;99.90;;;;;;4959094;29;20394;-78
2022/07/28 07:21:54;;;;;;;7.47;0.88;;;16.10;99.90;;;;;;4956963;29;20168;-76
2022/07/28 07:24:20;;;;;;;6.85;1.00;;;16.30;99.90;;;;;;4955909;29;20603;-74
2022/07/28 07:26:46;;;;;;;4.55;0.60;;;16.30;99.90;;;;;;4956518;29;20133;-75
2022/07/28 07:29:11;;;;;;;7.95;0.85;;;16.20;99.90;;;;;;4956446;29;20086;-76
2022/07/28 07:31:38;;;;;;;5.07;0.70;;;16.30;99.90;;;;;;4956905;29;20047;-75
2022/07/28 07:34:05;;;;;;;4.72;0.70;;;16.20;99.90;;;;;;4939447;29;20157;-74
2022/07/28 07:36:32;;;;;;;5.90;0.80;;;16.30;99.90;;;;;;4957438;29;20062;-76
2022/07/28 07:38:58;;;;;;;5.75;0.75;;;16.20;99.90;;;;;;4955705;29;20186;-76
2022/07/28 07:41:24;;;;;;;3.63;0.77;;;16.30;99.90;;;;;;4956724;28;20158;-74
2022/07/28 07:43:49;;;;;;;7.63;0.82;;;16.30;99.90;;;;;;4956078;29;20043;-75
2022/07/28 07:46:15;;;;;;;4.10;0.60;;;16.50;99.90;;;;;;4957212;29;20058;-75
2022/07/28 07:48:42;;;;;;;3.43;0.50;;;16.40;99.90;;;;;;4956990;28;20217;-75
2022/07/28 07:51:08;;;;;;;2.70;0.55;;;16.50;99.90;;;;;;4956757;28;20047;-73
2022/07/28 07:53:34;;;;;;;4.20;0.50;;;16.50;99.90;;;;;;4939623;29;20480;-77
2022/07/28 07:56:00;;;;;;;4.13;0.70;;;16.60;99.90;;;;;;4956158;29;20047;-76
2022/07/28 07:58:26;;;;;;;10.32;0.80;;;16.60;99.90;;;;;;4956435;29;20047;-77
2022/07/28 08:00:52;;;;;;;3.38;0.60;;;16.70;99.90;;;;;;4956344;29;20507;-75
2022/07/28 08:03:18;;;;;;;4.50;0.70;;;16.80;99.90;;;;;;4940029;29;20062;-75
2022/07/28 08:05:44;;;;;;;2.33;0.40;;;16.80;99.90;;;;;;4955272;29;20094;-75
2022/07/28 08:08:10;;;;;;;2.13;0.50;;;16.80;99.90;;;;;;4956376;29;20078;-76
2022/07/28 08:10:37;;;;;;;2.95;0.50;;;16.90;99.90;;;;;;4955148;29;20055;-77
2022/07/28 08:13:03;;;;;;;;;;;16.90;99.90;;;;;;4940290;29;20135;-76
2022/07/28 08:15:29;;;;;;;7.53;0.65;;;17.00;99.90;;;;;;4962732;29;19961;-77
2022/07/28 08:17:55;;;;;;;3.22;0.47;;;17.10;99.90;;;;;;4962613;29;20075;-76
2022/07/28 08:20:21;;;;;;;4.18;0.57;;;17.20;99.90;;;;;;4960394;28;20047;-80
2022/07/28 08:22:52;;;;;;;3.90;0.57;;;17.20;99.90;;;;;;4940340;29;20043;-75
2022/07/28 08:25:18;;;;;;;5.18;0.50;;;17.30;99.90;;;;;;4957503;29;20487;-76
2022/07/28 08:27:44;;;;;;;3.38;0.50;;;17.40;99.90;;;;;;4941939;29;20071;-77
2022/07/28 08:30:11;;;;;;;5.93;0.50;;;17.40;99.90;;;;;;4959111;29;20047;-76
2022/07/28 08:32:37;;;;;;;4.63;0.70;;;17.50;99.90;;;;;;4957776;29;20119;-76
2022/07/28 08:35:04;;;;;;;2.40;0.40;;;17.40;99.90;;;;;;4960122;29;20078;-77
2022/07/28 08:37:29;;;;;;;4.95;0.40;;;17.70;99.90;;;;;;4943092;29;20130;-77
2022/07/28 08:39:55;;;;;;;3.47;0.57;;;18.00;99.90;;;;;;4962417;28;20090;-77
2022/07/28 08:42:37;;;;;;;3.35;0.55;;;18.30;99.80;;;;;;4942023;29;20082;-76
2022/07/28 08:45:06;;;;;;;3.47;0.40;;;18.40;99.90;;;;;;4958752;29;20055;-77
2022/07/28 08:47:34;;;;;;;3.10;0.50;;;18.70;99.80;;;;;;4957926;29;20074;-78
2022/07/28 08:50:01;;;;;;;1.85;0.43;;;18.90;98.70;;;;;;4959832;29;20066;-77
2022/07/28 08:52:29;;;;;;;2.30;0.32;;;19.20;99.00;;;;;;4956628;28;20472;-76
2022/07/28 08:54:56;;;;;;;2.85;0.30;;;19.40;96.30;;;;;;4957372;29;20043;-78
2022/07/28 08:57:30;;;;;;;3.33;0.50;;;19.60;96.90;;;;;;4956067;29;20083;-73
2022/07/28 08:59:57;;;;;;;2.70;0.40;;;19.70;95.60;;;;;;4957049;28;20043;-76
2022/07/28 09:02:27;;;;;;;6.35;0.40;;;19.60;95.20;;;;;;4928468;29;20110;-78
2022/07/28 09:04:58;;;;;;;3.92;0.50;;;19.60;95.60;;;;;;4957813;29;20455;-77
2022/07/28 09:07:25;;;;;;;4.00;0.50;;;18.90;94.00;;;;;;4957016;29;20046;-79
2022/07/28 09:09:51;;;;;;;3.67;0.40;;;19.10;95.80;;;;;;4958134;29;20391;-77
2022/07/28 09:12:17;;;;;;;6.80;0.40;;;19.10;95.60;;;;;;4963688;29;20075;-76
2022/07/28 09:14:43;;;;;;;2.97;0.47;;;18.80;94.90;;;;;;4958608;29;20361;-78
2022/07/28 09:17:08;;;;;;;3.90;0.50;;;18.70;95.30;;;;;;4955733;29;20106;-76
2022/07/28 09:19:36;;;;;;;5.37;0.40;;;18.70;95.40;;;;;;4955628;29;20367;-78
2022/07/28 09:22:02;;;;;;;2.65;0.40;;;18.50;95.20;;;;;;4954619;29;20066;-76
2022/07/28 09:24:40;;;;;;;3.15;0.40;;;18.50;95.70;;;;;;4956318;29;20097;-76
2022/07/28 09:27:08;;;;;;;4.13;0.40;;;18.60;95.40;;;;;;4959006;28;20043;-75
2022/07/28 09:29:36;;;;;;;2.95;0.40;;;18.90;96.10;;;;;;4927345;29;20090;-78
2022/07/28 09:32:02;;;;;;;3.60;0.57;;;19.20;96.30;;;;;;4961595;29;20070;-77
2022/07/28 09:34:37;;;;;;;;;;;19.60;95.40;;;;;;4965245;29;20059;-74
2022/07/28 09:37:03;;;;;;;1.98;0.40;;;19.30;93.40;;;;;;4961029;29;20275;-73
2022/07/28 09:39:34;;;;;;;4.50;0.40;;;18.90;94.80;;;;;;4962807;29;20051;-77
2022/07/28 09:42:00;;;;;;;2.97;0.60;;;19.00;95.20;;;;;;4963983;29;20039;-77
2022/07/28 09:44:27;;;;;;;2.93;0.40;;;19.40;95.00;;;;;;4947519;29;20483;-77
2022/07/28 09:46:54;;;;;;;3.75;0.40;;;19.10;94.60;;;;;;4962960;29;20051;-76
2022/07/28 09:49:20;;;;;;;3.15;0.50;;;19.30;94.60;;;;;;4963068;29;20055;-77
2022/07/28 09:52:00;;;;;;;4.43;0.60;;;19.20;94.70;;;;;;4963971;28;20122;-74
2022/07/28 09:54:25;;;;;;;3.30;0.50;;;19.00;94.50;;;;;;4947586;29;20047;-76
2022/07/28 09:56:51;;;;;;;4.90;0.40;;;18.90;94.90;;;;;;4947968;29;20071;-79
2022/07/28 09:59:17;;;;;;;4.13;0.40;;;19.20;94.40;;;;;;4965757;28;20107;-76
2022/07/28 10:02:00;;;;;;;3.73;0.40;;;19.70;94.20;;;;;;4946814;29;20054;-75
2022/07/28 10:04:33;;;;;;;3.58;0.45;;;19.90;93.00;;;;;;4963473;28;20049;-75
2022/07/28 10:07:12;;;;;;;7.00;0.40;;;19.80;93.10;;;;;;4951756;29;20154;-76
2022/07/28 10:09:39;;;;;;;3.50;0.50;;;19.90;93.00;;;;;;4975765;29;20514;-76
2022/07/28 10:12:23;;;;;;;3.33;0.50;;;19.90;93.40;;;;;;4972233;28;20054;-77
2022/07/28 10:14:50;;;;;;;2.10;0.40;;;20.10;93.00;;;;;;4969767;28;20123;-76
2022/07/28 10:17:31;;;;;;;2.13;0.30;;;20.30;92.70;;;;;;4951973;29;20219;-78
2022/07/28 10:20:04;;;;;;;2.75;0.40;;;20.70;92.10;;;;;;4966432;29;20051;-78
2022/07/28 10:22:32;;;;;;;7.13;0.50;;;20.80;91.30;;;;;;4950633;29;20047;-77
2022/07/28 10:25:06;;;;;;;5.82;0.50;;;20.90;91.10;;;;;;4967034;29;20051;-77
2022/07/28 10:27:32;;;;;;;3.92;0.50;;;21.10;91.20;;;;;;4966860;28;20146;-76
2022/07/28 10:30:00;;;;;;;6.03;0.40;;;21.30;91.00;;;;;;4966732;29;20043;-77
2022/07/28 10:32:30;;;;;;;3.05;0.40;;;21.40;89.50;;;;;;4965321;29;20090;-76
2022/07/28 10:35:00;;;;;;;3.63;0.40;;;21.50;88.90;;;;;;4965813;28;20054;-78
2022/07/28 10:37:29;;;;;;;1.35;0.40;;;21.50;87.60;;;;;;4966762;29;20518;-76
2022/07/28 10:40:07;;;;;;;3.25;0.30;;;21.60;88.70;;;;;;4967161;29;20079;-78
2022/07/28 10:42:34;;;;;;;2.70;0.32;;;21.80;87.50;;;;;;4967483;28;20115;-77
2022/07/28 10:45:02;;;;;;;2.03;0.40;;;22.00;83.90;;;;;;4949436;29;20047;-75
2022/07/28 10:47:28;;;;;;;3.60;0.40;;;21.90;85.70;;;;;;4950349;29;20055;-77
2022/07/28 10:49:55;;;;;;;3.67;0.47;;;22.10;86.10;;;;;;4964468;29;20062;-75
2022/07/28 10:52:22;;;;;;;5.03;0.40;;;22.00;85.60;;;;;;4964788;29;20054;-76
2022/07/28 10:55:17;;;;;;;5.25;0.40;;;21.90;87.60;;;;;;4967343;29;20157;-79
2022/07/28 10:57:58;;;;;;;3.28;0.50;;;21.90;88.40;;;;;;4961321;29;20368;-75
2022/07/28 11:00:26;;;;;;;3.53;0.50;;;21.70;86.50;;;;;;4968308;28;20133;-75
2022/07/28 11:02:59;;;;;;;3.30;0.47;;;20.90;83.80;;;;;;4967236;29;20059;-75
2022/07/28 11:05:35;;;;;;;4.03;0.40;;;20.50;84.70;;;;;;4950592;29;20055;-79
2022/07/28 11:08:07;;;;;;;;;;;20.80;84.10;;;;;;4966438;29;20527;-77
2022/07/28 11:10:44;;;;;;;2.28;0.32;;;20.70;85.60;;;;;;4950236;29;19961;-76
2022/07/28 11:13:34;;;;;;;1.33;0.30;;;21.00;87.50;;;;;;4965183;29;20054;-76
2022/07/28 11:16:19;;;;;;;3.25;0.43;;;21.20;85.20;;;;;;4963091;28;20051;-75
2022/07/28 11:19:07;;;;;;;1.30;0.40;;;20.90;82.60;;;;;;4964715;29;20051;-76
2022/07/28 11:21:36;;;;;;;3.75;0.40;;;21.00;83.30;;;;;;4957934;29;20443;-77
2022/07/28 11:24:05;;;;;;;1.70;0.45;;;21.00;81.50;;;;;;4957587;28;20055;-76
2022/07/28 11:26:36;;;;;;;2.30;0.30;;;20.90;82.90;;;;;;4958520;28;20046;-77
2022/07/28 11:29:04;;;;;;;4.63;0.65;;;20.90;82.90;;;;;;4945893;29;20063;-74
2022/07/28 11:31:45;;;;;;;2.15;0.40;;;20.80;82.60;;;;;;4959782;29;20050;-75
2022/07/28 11:34:17;;;;;;;2.47;0.40;;;20.60;81.70;;;;;;4960728;29;20063;-78
2022/07/28 11:37:01;;;;;;;2.83;0.40;;;20.60;81.10;;;;;;4958563;28;20055;-76
2022/07/28 11:39:37;;;;;;;5.40;0.50;;;20.40;82.50;;;;;;4956741;29;20057;-76
2022/07/28 11:42:41;;;;;;;2.92;0.40;;;20.60;82.90;;;;;;4956896;29;20059;-79
2022/07/28 11:45:27;;;;;;;5.60;0.57;;;20.70;83.10;;;;;;4961874;29;20061;-77
2022/07/28 11:48:16;;;;;;;3.75;0.40;;;20.90;82.10;;;;;;4966151;29;20043;-82
2022/07/28 11:51:02;;;;;;;5.47;0.30;;;21.20;82.10;;;;;;4963750;29;20051;-76
2022/07/28 11:53:48;;;;;;;2.95;0.32;;;21.20;80.90;;;;;;4962686;29;20062;-77
2022/07/28 11:56:30;;;;;;;1.60;0.50;;;21.20;80.20;;;;;;4962792;28;20051;-78
2022/07/28 11:58:59;;;;;;;3.58;0.40;;;21.00;80.20;;;;;;4965556;29;20427;-78
2022/07/28 12:01:25;;;;;;;2.50;0.50;;;21.30;81.30;;;;;;4948882;29;20074;-76
2022/07/28 12:03:54;;;;;;;4.75;0.45;;;21.50;80.80;;;;;;4949404;29;20109;-76
2022/07/28 12:06:22;;;;;;;2.60;0.40;;;21.60;81.30;;;;;;4949122;29;20075;-75
2022/07/28 12:08:57;;;;;;;1.27;0.30;;;21.60;79.20;;;;;;4949550;29;20102;-74
2022/07/28 12:11:25;;;;;;;3.27;0.43;;;21.50;77.50;;;;;;4964557;29;20053;-79
2022/07/28 12:14:08;;;;;;;4.13;0.40;;;21.30;79.30;;;;;;4966090;29;20394;-77
2022/07/28 12:16:36;;;;;;;3.65;0.47;;;21.00;77.10;;;;;;4966440;28;20130;-76
2022/07/28 12:19:08;;;;;;;2.47;0.30;;;21.00;79.60;;;;;;4964043;29;20086;-75
2022/07/28 12:21:41;;;;;;;1.63;0.30;;;20.80;79.20;;;;;;4964869;29;20043;-74
2022/07/28 12:24:09;;;;;;;3.65;0.68;;;21.10;80.20;;;;;;4964107;29;20365;-76
2022/07/28 12:26:36;;;;;;;2.97;0.40;;;20.70;77.90;;;;;;4961844;29;20051;-75
2022/07/28 12:29:03;;;;;;;3.08;0.40;;;20.50;78.60;;;;;;4963499;28;20047;-73
2022/07/28 12:31:34;;;;;;;3.47;0.40;;;20.50;79.00;;;;;;4964479;28;20079;-75
2022/07/28 12:34:16;;;;;;;2.90;0.40;;;20.90;79.10;;;;;;4963537;28;20059;-76
2022/07/28 12:36:41;;;;;;;1.33;0.40;;;21.20;79.40;;;;;;4947259;29;20061;-73
2022/07/28 12:39:08;;;;;;;2.00;0.40;;;21.60;79.10;;;;;;4946840;29;20126;-77
2022/07/28 12:41:37;;;;;;;2.72;0.40;;;21.40;78.10;;;;;;4963442;29;20400;-74
2022/07/28 12:44:05;;;;;;;1.92;0.40;;;21.70;78.00;;;;;;4963120;29;20051;-77
2022/07/28 12:46:31;;;;;;;2.45;0.30;;;22.00;78.50;;;;;;4946777;29;20051;-78
2022/07/28 12:49:00;;;;;;;1.65;0.30;;;22.20;76.90;;;;;;4962419;29;20094;-75
2022/07/28 12:51:40;;;;;;;2.40;0.50;;;22.20;75.00;;;;;;4947928;29;20153;-76
2022/07/28 12:54:11;;;;;;;2.22;0.40;;;22.30;77.60;;;;;;4964211;29;20085;-76
2022/07/28 12:57:03;;;;;;;2.53;0.40;;;22.60;77.70;;;;;;4963507;29;20054;-76
2022/07/28 12:59:34;;;;;;;4.13;0.30;;;22.30;74.50;;;;;;4962681;29;20464;-76